Time;durP1;ratioP1;P1;durP2;ratioP2;P2;SDS_P1;SDS_P2;PMS_P1;PMS_P2;Temp;Humidity;BMP_temperature;BMP_pressure;BME280_temperature;BME280_humidity;BME280_pressure;Samples;Min_cycle;Max_cycle;Signal;HPM_P1;HPM_P2
2023/12/25 00:09:10;;;;;;;0.25;0.10;;;4.90;84.40;;;;;;21032798;28;20035;-59
2023/12/25 00:19:12;;;;;;;1.52;0.30;;;4.90;85.40;;;;;;20980126;28;20036;-59
2023/12/25 00:29:14;;;;;;;0.50;0.20;;;5.00;86.20;;;;;;21024819;28;20039;-59
2023/12/25 00:39:17;;;;;;;0.25;0.20;;;4.80;87.20;;;;;;21047266;28;20052;-58
2023/12/25 00:49:19;;;;;;;0.55;0.20;;;4.50;87.50;;;;;;21055619;28;20090;-58
2023/12/25 00:59:21;;;;;;;0.43;0.20;;;4.50;87.70;;;;;;21008090;28;20032;-58
2023/12/25 01:09:24;;;;;;;0.60;0.20;;;5.00;84.80;;;;;;21027669;28;20081;-59
2023/12/25 01:19:25;;;;;;;0.60;0.30;;;5.00;85.00;;;;;;21037795;28;20028;-59
2023/12/25 01:29:27;;;;;;;0.25;0.10;;;4.90;85.20;;;;;;21061630;28;20153;-59
2023/12/25 01:39:29;;;;;;;2.38;0.20;;;4.90;88.30;;;;;;21061023;28;20032;-59
2023/12/25 01:49:31;;;;;;;1.65;0.40;;;4.80;87.70;;;;;;21066857;28;20077;-59
2023/12/25 01:59:33;;;;;;;0.80;0.40;;;4.80;87.00;;;;;;21041469;28;20056;-59
2023/12/25 02:09:35;;;;;;;1.08;0.40;;;4.70;87.60;;;;;;21058890;28;20054;-48
2023/12/25 02:19:43;;;;;;;1.08;0.50;;;4.60;88.20;;;;;;21062573;28;20040;-59
2023/12/25 02:29:45;;;;;;;1.83;0.90;;;4.70;89.40;;;;;;21014815;28;20085;-50
2023/12/25 02:39:50;;;;;;;1.88;0.90;;;4.90;87.90;;;;;;21056304;28;20032;-59
2023/12/25 02:49:52;;;;;;;2.42;1.17;;;4.50;88.70;;;;;;21063166;28;20035;-54
2023/12/25 02:59:53;;;;;;;2.13;1.15;;;4.20;89.60;;;;;;21048331;28;20432;-59
2023/12/25 03:09:55;;;;;;;3.55;1.13;;;3.80;90.40;;;;;;20998649;28;20081;-59
2023/12/25 03:19:57;;;;;;;1.00;0.50;;;4.30;90.20;;;;;;21045383;28;20028;-58
2023/12/25 03:29:58;;;;;;;2.13;0.70;;;4.90;90.70;;;;;;21039574;28;20052;-59
2023/12/25 03:40:00;;;;;;;1.20;0.50;;;5.10;90.60;;;;;;21037962;28;20028;-58
2023/12/25 03:50:08;;;;;;;1.00;0.50;;;5.00;91.30;;;;;;21033208;28;20036;-55
2023/12/25 04:00:10;;;;;;;0.63;0.28;;;4.60;91.90;;;;;;21022179;28;20065;-58
2023/12/25 04:10:18;;;;;;;2.13;0.93;;;4.40;92.80;;;;;;21019126;28;20071;-59
2023/12/25 04:20:20;;;;;;;1.58;0.88;;;4.40;91.80;;;;;;21043042;28;20035;-58
2023/12/25 04:30:22;;;;;;;1.85;0.80;;;4.10;92.60;;;;;;21045195;28;20040;-59
2023/12/25 04:40:23;;;;;;;1.85;0.20;;;3.90;92.80;;;;;;21058382;28;20089;-59
2023/12/25 04:50:28;;;;;;;2.42;0.63;;;4.20;93.70;;;;;;21073390;28;20057;-58
2023/12/25 05:00:32;;;;;;;1.40;0.60;;;4.50;91.50;;;;;;21023462;28;20144;-58
2023/12/25 05:10:34;;;;;;;1.33;0.50;;;4.10;92.10;;;;;;21056308;28;20058;-58
2023/12/25 05:20:39;;;;;;;1.40;0.60;;;3.70;92.60;;;;;;21043188;28;20036;-58
2023/12/25 05:30:40;;;;;;;1.48;0.60;;;3.80;93.30;;;;;;21061092;28;20730;-52
2023/12/25 05:40:42;;;;;;;2.15;0.40;;;4.10;93.20;;;;;;21027884;28;20024;-59
2023/12/25 05:50:44;;;;;;;0.20;0.20;;;4.30;93.40;;;;;;21012259;28;20032;-59
2023/12/25 06:00:46;;;;;;;0.55;0.25;;;4.80;93.20;;;;;;21046891;28;20036;-61
2023/12/25 06:10:47;;;;;;;0.85;0.40;;;5.00;92.80;;;;;;21050467;28;20028;-46
2023/12/25 06:20:49;;;;;;;3.53;1.70;;;4.70;93.00;;;;;;21019640;28;20040;-61
2023/12/25 06:30:51;;;;;;;1.23;0.52;;;4.20;92.50;;;;;;20984276;28;20548;-51
2023/12/25 06:40:53;;;;;;;2.38;0.90;;;3.70;93.80;;;;;;20979124;28;20086;-61
2023/12/25 06:50:55;;;;;;;0.30;0.10;;;3.50;94.20;;;;;;20986146;28;20033;-61
2023/12/25 07:00:59;;;;;;;0.47;0.20;;;3.40;95.80;;;;;;20980333;28;20480;-50
2023/12/25 07:11:01;;;;;;;1.65;0.20;;;3.70;95.00;;;;;;20967310;28;20039;-56
2023/12/25 07:21:03;;;;;;;1.83;0.40;;;3.80;94.30;;;;;;20977022;28;20044;-59
2023/12/25 07:31:04;;;;;;;1.23;0.40;;;3.60;94.30;;;;;;20980145;28;20041;-55
2023/12/25 07:41:10;;;;;;;1.00;0.40;;;3.60;94.80;;;;;;20951436;28;20040;-45
2023/12/25 07:51:11;;;;;;;3.35;1.45;;;3.90;93.50;;;;;;20981161;28;20097;-54
2023/12/25 08:01:13;;;;;;;3.28;1.50;;;4.10;94.10;;;;;;20971607;28;20421;-58
2023/12/25 08:11:15;;;;;;;2.97;0.95;;;4.70;93.40;;;;;;20976429;28;20120;-51
2023/12/25 08:21:17;;;;;;;4.10;1.73;;;5.40;91.80;;;;;;20961787;28;20304;-55
2023/12/25 08:31:19;;;;;;;8.70;4.50;;;6.40;90.70;;;;;;20974677;28;20036;-50
2023/12/25 08:41:21;;;;;;;12.63;5.22;;;7.40;93.90;;;;;;20969290;28;20036;-50
2023/12/25 08:51:23;;;;;;;10.43;4.47;;;7.80;94.90;;;;;;20963504;28;20051;-49
2023/12/25 09:01:24;;;;;;;14.13;5.63;;;8.10;94.00;;;;;;20952296;28;20117;-51
2023/12/25 09:11:26;;;;;;;15.85;7.35;;;9.00;95.80;;;;;;20994714;28;20098;-56
2023/12/25 09:21:48;;;;;;;15.63;7.72;;;9.70;96.30;;;;;;20976832;28;20691;-49
2023/12/25 09:31:50;;;;;;;17.80;8.10;;;10.00;96.70;;;;;;20995257;28;20063;-50
2023/12/25 09:41:52;;;;;;;17.40;8.85;;;9.40;98.20;;;;;;20998997;28;20090;-51
2023/12/25 09:51:56;;;;;;;17.45;8.50;;;9.40;99.40;;;;;;20983839;28;20031;-51
2023/12/25 10:02:04;;;;;;;20.38;9.10;;;8.50;99.90;;;;;;20979265;28;20068;-56
2023/12/25 10:12:07;;;;;;;20.67;10.75;;;7.60;99.90;;;;;;21014168;28;20029;-50
2023/12/25 10:22:10;;;;;;;20.27;10.55;;;7.00;99.90;;;;;;20955078;28;20048;-48
2023/12/25 10:32:18;;;;;;;21.20;10.18;;;6.50;99.90;;;;;;20976558;28;20074;-49
2023/12/25 10:42:21;;;;;;;23.80;9.52;;;6.60;99.90;;;;;;20984915;28;20029;-48
2023/12/25 10:52:23;;;;;;;12.40;6.28;;;8.30;99.90;;;;;;20982421;28;20040;-46
2023/12/25 11:02:25;;;;;;;16.08;7.32;;;9.40;99.90;;;;;;20975236;28;20033;-52
2023/12/25 11:12:27;;;;;;;19.13;7.95;;;10.20;99.90;;;;;;20981309;28;20450;-58
2023/12/25 11:22:33;;;;;;;16.65;7.97;;;10.40;99.90;;;;;;20986562;28;20083;-56
2023/12/25 11:32:45;;;;;;;16.92;8.30;;;10.60;99.90;;;;;;20983418;28;20059;-50
2023/12/25 11:42:48;;;;;;;14.93;7.68;;;10.90;99.90;;;;;;21016597;28;20028;-52
2023/12/25 11:52:53;;;;;;;19.77;8.02;;;10.90;99.90;;;;;;20959205;28;20086;-49
2023/12/25 12:02:56;;;;;;;21.63;8.68;;;10.90;99.90;;;;;;20974335;28;20036;-57
2023/12/25 12:12:57;;;;;;;18.33;8.45;;;11.10;99.90;;;;;;20975438;28;20630;-52
2023/12/25 12:22:59;;;;;;;18.48;7.82;;;10.80;99.90;;;;;;20986936;28;20059;-50
2023/12/25 12:33:03;;;;;;;17.98;8.98;;;10.80;99.90;;;;;;20969416;28;20029;-50
2023/12/25 12:43:05;;;;;;;15.25;8.13;;;10.70;99.90;;;;;;20978557;28;20028;-58
2023/12/25 12:53:06;;;;;;;20.85;8.73;;;10.60;99.90;;;;;;20972518;28;20037;-50
2023/12/25 13:03:08;;;;;;;15.50;8.05;;;10.30;99.90;;;;;;20995314;28;20036;-50
2023/12/25 13:13:10;;;;;;;18.00;8.60;;;9.80;99.90;;;;;;20979631;28;20032;-51
2023/12/25 13:23:12;;;;;;;21.90;9.95;;;9.20;99.90;;;;;;20987815;28;20037;-48
2023/12/25 13:33:15;;;;;;;20.20;10.45;;;8.60;99.90;;;;;;20986757;28;20058;-51
2023/12/25 13:43:17;;;;;;;19.23;10.60;;;8.20;99.90;;;;;;20989972;28;20041;-47
2023/12/25 13:53:22;;;;;;;17.25;9.93;;;7.80;99.90;;;;;;20987750;28;20037;-49
2023/12/25 14:03:24;;;;;;;29.50;12.40;;;7.40;99.90;;;;;;20996085;28;20032;-50
2023/12/25 14:13:27;;;;;;;22.15;12.85;;;7.00;99.90;;;;;;20995912;28;20028;-49
2023/12/25 14:23:29;;;;;;;30.45;16.23;;;6.80;99.90;;;;;;20990733;28;20049;-51
2023/12/25 14:33:31;;;;;;;36.15;17.33;;;6.70;99.90;;;;;;20963235;28;20021;-49
2023/12/25 14:43:33;;;;;;;30.35;15.05;;;6.70;99.90;;;;;;20952492;28;20025;-59
2023/12/25 14:53:36;;;;;;;33.25;18.05;;;6.60;99.90;;;;;;20983840;28;20025;-59
2023/12/25 15:03:38;;;;;;;41.47;22.10;;;6.50;99.90;;;;;;20976424;28;20255;-53
2023/12/25 15:13:40;;;;;;;37.15;19.27;;;6.20;99.90;;;;;;20983344;28;20033;-60
2023/12/25 15:23:42;;;;;;;35.45;19.73;;;6.00;99.90;;;;;;20986521;28;20099;-60
2023/12/25 15:33:44;;;;;;;47.45;22.50;;;5.70;99.90;;;;;;20876070;28;20041;-50
2023/12/25 15:43:46;;;;;;;93.22;24.73;;;5.60;99.90;;;;;;20870189;28;20442;-52
2023/12/25 15:53:48;;;;;;;40.67;22.42;;;5.40;99.90;;;;;;20877109;28;20032;-52
2023/12/25 16:03:49;;;;;;;34.75;20.02;;;5.00;99.90;;;;;;20893892;28;20106;-61
2023/12/25 16:13:51;;;;;;;28.23;16.05;;;4.30;99.90;;;;;;20905501;28;20035;-62
2023/12/25 16:23:54;;;;;;;32.67;18.15;;;3.40;99.90;;;;;;20968304;28;20051;-61
2023/12/25 16:33:55;;;;;;;34.40;16.27;;;3.00;99.90;;;;;;20977920;28;20478;-53
2023/12/25 16:43:57;;;;;;;36.10;17.17;;;3.00;99.90;;;;;;20974864;28;20028;-51
2023/12/25 16:54:00;;;;;;;45.20;19.95;;;3.10;99.90;;;;;;20986125;28;20044;-55
2023/12/25 17:04:01;;;;;;;39.20;18.25;;;3.00;99.90;;;;;;20978628;28;20054;-50
2023/12/25 17:14:03;;;;;;;51.70;20.92;;;3.20;99.90;;;;;;21018507;28;20017;-52
2023/12/25 17:24:06;;;;;;;50.00;22.05;;;3.60;99.90;;;;;;20981161;28;20056;-50
2023/12/25 17:34:08;;;;;;;40.35;19.67;;;3.60;99.90;;;;;;20975235;28;20477;-59
2023/12/25 17:44:10;;;;;;;43.47;20.60;;;3.70;99.90;;;;;;20976576;28;20658;-52
2023/12/25 17:54:12;;;;;;;48.95;21.05;;;3.80;99.90;;;;;;20988277;28;20033;-59
2023/12/25 18:04:14;;;;;;;38.47;19.38;;;4.00;99.90;;;;;;20988190;28;20028;-53
2023/12/25 18:14:16;;;;;;;40.42;20.75;;;3.90;99.90;;;;;;20986106;28;20032;-49
2023/12/25 18:24:17;;;;;;;37.10;19.75;;;3.50;99.90;;;;;;21008944;28;20036;-59
2023/12/25 18:34:19;;;;;;;39.17;18.85;;;3.00;99.90;;;;;;20977665;28;20037;-60
2023/12/25 18:44:21;;;;;;;37.10;19.10;;;2.70;99.90;;;;;;20984113;28;20043;-50
2023/12/25 18:54:23;;;;;;;40.95;19.50;;;2.60;99.90;;;;;;20982271;28;20033;-59
2023/12/25 19:04:25;;;;;;;47.50;20.65;;;2.60;99.90;;;;;;21036969;28;20039;-59
2023/12/25 19:14:26;;;;;;;48.25;21.60;;;3.10;99.90;;;;;;20988274;28;20090;-62
2023/12/25 19:24:28;;;;;;;47.13;23.23;;;3.50;99.90;;;;;;20988037;28;20045;-61
2023/12/25 19:34:30;;;;;;;42.42;19.95;;;3.80;99.90;;;;;;20979793;28;20570;-61
2023/12/25 19:44:32;;;;;;;48.05;23.38;;;3.90;99.90;;;;;;20996529;28;20086;-62
2023/12/25 19:54:34;;;;;;;57.13;23.77;;;4.00;99.90;;;;;;21029935;28;20055;-62
2023/12/25 20:04:36;;;;;;;36.30;19.77;;;4.10;99.90;;;;;;20958776;28;20082;-51
2023/12/25 20:14:38;;;;;;;27.40;15.98;;;4.10;99.90;;;;;;20996300;28;20051;-62
2023/12/25 20:24:40;;;;;;;32.90;16.80;;;3.90;99.90;;;;;;21001507;28;20126;-51
2023/12/25 20:34:42;;;;;;;54.65;25.85;;;3.70;99.90;;;;;;20991960;28;20033;-61
2023/12/25 20:44:44;;;;;;;53.78;27.05;;;3.80;99.90;;;;;;21019618;28;20477;-52
2023/12/25 20:54:49;;;;;;;76.20;27.27;;;3.90;99.90;;;;;;21040998;28;20094;-60
2023/12/25 21:04:51;;;;;;;64.43;27.80;;;3.80;99.90;;;;;;20974411;28;20028;-61
2023/12/25 21:14:53;;;;;;;64.40;24.63;;;3.80;99.90;;;;;;20975874;28;20081;-62
2023/12/25 21:24:55;;;;;;;55.05;26.67;;;3.70;99.90;;;;;;21034188;28;20045;-61
2023/12/25 21:34:57;;;;;;;104.28;29.63;;;3.80;99.90;;;;;;20987823;28;20548;-57
2023/12/25 21:44:59;;;;;;;50.22;26.05;;;3.70;99.90;;;;;;21026439;28;20048;-51
2023/12/25 21:55:01;;;;;;;295.15;40.08;;;3.80;99.90;;;;;;21032092;28;20029;-51
2023/12/25 22:05:03;;;;;;;70.32;29.88;;;3.80;99.90;;;;;;20985972;28;20066;-61
2023/12/25 22:15:05;;;;;;;68.15;30.73;;;3.80;99.90;;;;;;20934059;28;20134;-59
2023/12/25 22:25:07;;;;;;;132.52;33.80;;;3.90;99.90;;;;;;20929547;28;20068;-55
2023/12/25 22:35:09;;;;;;;148.35;34.60;;;4.00;99.90;;;;;;20971507;28;20122;-59
2023/12/25 22:45:11;;;;;;;226.75;36.05;;;4.00;99.90;;;;;;20979935;28;20560;-61
2023/12/25 22:55:13;;;;;;;105.97;33.38;;;4.00;99.90;;;;;;20976147;28;20077;-49
2023/12/25 23:05:15;;;;;;;159.98;38.60;;;3.90;99.90;;;;;;20979051;28;20024;-62
2023/12/25 23:15:17;;;;;;;56.47;29.35;;;3.80;99.90;;;;;;20977182;28;20028;-50
2023/12/25 23:25:19;;;;;;;55.28;29.95;;;3.80;99.90;;;;;;20939136;28;20049;-60
2023/12/25 23:35:21;;;;;;;41.03;23.90;;;3.90;99.90;;;;;;20880750;28;20398;-59
2023/12/25 23:45:24;;;;;;;68.10;27.20;;;3.90;99.90;;;;;;20895208;28;20098;-50
2023/12/25 23:55:25;;;;;;;58.85;27.38;;;3.90;99.90;;;;;;20893300;28;20025;-61
